createdAt,value
2022-10-21T00:01:59.011Z,1.55
2022-10-21T00:06:00.642Z,1.90
2022-10-21T00:10:03.140Z,1.65
2022-10-21T00:14:04.865Z,1.83
2022-10-21T00:18:06.455Z,1.90
2022-10-21T00:22:08.094Z,1.73
2022-10-21T00:26:10.887Z,1.77
2022-10-21T00:30:13.438Z,2.10
2022-10-21T00:34:15.054Z,1.90
2022-10-21T00:38:16.742Z,2.00
2022-10-21T00:42:21.562Z,2.30
2022-10-21T00:46:44.076Z,1.70
2022-10-21T00:50:54.751Z,1.92
2022-10-21T00:54:59.626Z,2.10
2022-10-21T00:59:03.818Z,1.92
2022-10-21T01:03:06.336Z,1.80
2022-10-21T01:07:08.029Z,1.90
2022-10-21T01:11:15.728Z,1.83
2022-10-21T01:15:44.620Z,2.00
2022-10-21T01:20:15.737Z,1.77
2022-10-21T01:24:49.298Z,2.00
2022-10-21T01:29:10.073Z,1.83
2022-10-21T01:33:39.380Z,1.73
2022-10-21T01:38:08.650Z,1.77
2022-10-21T01:42:39.644Z,2.08
2022-10-21T01:46:52.195Z,1.67
2022-10-21T01:50:58.556Z,1.80
2022-10-21T01:55:05.618Z,1.85
2022-10-21T01:59:09.385Z,1.73
2022-10-21T02:03:16.391Z,1.50
2022-10-21T02:07:18.123Z,1.90
2022-10-21T02:11:20.204Z,1.67
2022-10-21T02:15:23.237Z,1.77
2022-10-21T02:19:25.608Z,1.95
2022-10-21T02:23:50.939Z,1.83
2022-10-21T02:27:53.171Z,2.08
2022-10-21T02:32:05.123Z,1.98
2022-10-21T02:36:16.926Z,1.42
2022-10-21T02:40:44.664Z,1.70
2022-10-21T02:44:46.269Z,1.90
2022-10-21T02:48:49.037Z,1.80
2022-10-21T02:52:50.651Z,1.67
2022-10-21T02:56:52.293Z,1.80
2022-10-21T03:00:53.962Z,1.75
2022-10-21T03:04:55.566Z,1.63
2022-10-21T03:08:57.181Z,1.60
2022-10-21T03:12:58.818Z,1.77
2022-10-21T03:17:00.409Z,1.75
2022-10-21T03:21:02.025Z,1.83
2022-10-21T03:25:04.121Z,1.60
2022-10-21T03:29:05.826Z,2.00
2022-10-21T03:33:07.457Z,1.70
2022-10-21T03:37:09.658Z,2.00
2022-10-21T03:41:11.254Z,1.90
2022-10-21T03:45:13.029Z,2.10
2022-10-21T03:49:20.163Z,1.63
2022-10-21T03:53:38.290Z,1.80
2022-10-21T03:57:44.222Z,1.67
2022-10-21T04:01:46.060Z,1.65
2022-10-21T04:05:47.713Z,2.08
2022-10-21T04:09:49.346Z,1.85
2022-10-21T04:13:51.011Z,1.80
2022-10-21T04:17:52.746Z,1.85
2022-10-21T04:21:54.371Z,2.00
2022-10-21T04:25:56.033Z,1.73
2022-10-21T04:29:57.700Z,1.80
2022-10-21T04:33:59.290Z,2.08
2022-10-21T04:38:00.933Z,2.30
2022-10-21T04:42:02.779Z,1.67
2022-10-21T04:46:07.554Z,1.80
2022-10-21T04:50:11.906Z,1.73
2022-10-21T04:54:13.563Z,2.00
2022-10-21T04:58:19.484Z,2.08
2022-10-21T05:02:25.559Z,1.73
2022-10-21T05:06:27.508Z,2.30
2022-10-21T05:10:30.455Z,2.30
2022-10-21T05:14:32.164Z,3.78
2022-10-21T05:18:33.835Z,6.68
2022-10-21T05:22:36.510Z,6.38
2022-10-21T05:26:38.308Z,4.95
2022-10-21T05:34:46.987Z,5.93
2022-10-21T05:38:48.649Z,5.68
2022-10-21T05:42:50.217Z,5.53
2022-10-21T05:46:51.791Z,5.75
2022-10-21T05:50:54.957Z,5.40
2022-10-21T05:54:56.648Z,5.72
2022-10-21T05:58:58.235Z,5.57
2022-10-21T06:02:59.901Z,4.68
2022-10-21T06:07:01.664Z,5.00
2022-10-21T06:11:09.804Z,5.00
2022-10-21T06:15:11.430Z,3.85
2022-10-21T06:19:13.005Z,4.70
2022-10-21T06:23:16.182Z,5.15
2022-10-21T06:27:17.769Z,3.78
2022-10-21T06:31:23.317Z,4.07
2022-10-21T06:35:24.946Z,3.70
2022-10-21T06:39:26.539Z,3.28
2022-10-21T06:43:28.937Z,3.75
2022-10-21T06:47:30.529Z,3.70
2022-10-21T06:51:32.155Z,3.20
2022-10-21T06:55:33.835Z,3.70
2022-10-21T06:59:35.419Z,3.08
2022-10-21T07:03:37.082Z,3.08
2022-10-21T07:07:38.999Z,2.88
2022-10-21T07:11:40.727Z,3.10
2022-10-21T07:15:42.325Z,2.92
2022-10-21T07:19:44.038Z,2.88
2022-10-21T07:23:47.426Z,2.40
2022-10-21T07:27:49.832Z,3.00
2022-10-21T07:31:51.649Z,3.00
2022-10-21T07:36:06.410Z,3.00
2022-10-21T07:40:09.237Z,3.00
2022-10-21T07:44:11.639Z,2.80
2022-10-21T07:48:13.237Z,3.17
2022-10-21T07:56:25.303Z,2.50
2022-10-21T08:00:27.102Z,2.90
2022-10-21T08:04:29.777Z,2.85
2022-10-21T08:08:32.294Z,3.10
2022-10-21T08:12:33.928Z,3.13
2022-10-21T08:16:36.119Z,2.95
2022-10-21T08:20:43.250Z,2.50
2022-10-21T08:24:44.897Z,2.67
2022-10-21T08:28:46.589Z,2.95
2022-10-21T08:32:48.246Z,2.60
2022-10-21T08:36:49.861Z,2.35
2022-10-21T08:40:54.924Z,2.45
2022-10-21T08:45:03.291Z,2.78
2022-10-21T08:49:23.151Z,2.75
2022-10-21T08:53:48.096Z,2.58
2022-10-21T08:57:50.379Z,2.72
2022-10-21T09:02:01.535Z,2.58
2022-10-21T09:06:19.498Z,2.40
2022-10-21T09:10:33.321Z,2.20
2022-10-21T09:15:00.015Z,2.63
2022-10-21T09:19:01.819Z,2.85
2022-10-21T09:23:42.227Z,2.72
2022-10-21T09:27:55.390Z,2.92
2022-10-21T09:32:26.064Z,2.47
2022-10-21T09:36:36.205Z,2.70
2022-10-21T09:40:37.806Z,2.30
2022-10-21T09:44:40.331Z,2.90
2022-10-21T09:49:16.227Z,2.58
2022-10-21T09:53:21.352Z,2.38
2022-10-21T09:57:57.062Z,2.40
2022-10-21T10:02:15.372Z,2.30
2022-10-21T10:06:36.993Z,2.40
2022-10-21T10:10:38.593Z,2.08
2022-10-21T10:14:45.311Z,2.40
2022-10-21T10:18:47.025Z,2.60
2022-10-21T10:22:58.257Z,2.10
2022-10-21T10:27:13.158Z,2.67
2022-10-21T10:31:27.330Z,2.78
2022-10-21T10:35:33.585Z,2.40
2022-10-21T10:39:38.806Z,3.08
2022-10-21T10:43:50.374Z,2.43
2022-10-21T10:48:03.928Z,2.45
2022-10-21T10:52:11.838Z,2.60
2022-10-21T10:56:43.063Z,2.63
2022-10-21T11:00:47.749Z,2.67
2022-10-21T11:05:31.590Z,2.17
2022-10-21T11:09:34.232Z,2.65
2022-10-21T11:13:42.111Z,2.15
2022-10-21T11:17:54.630Z,2.10
2022-10-21T11:22:05.134Z,2.70
2022-10-21T11:26:29.519Z,2.35
2022-10-21T11:31:00.683Z,2.10
2022-10-21T11:35:32.189Z,1.80
2022-10-21T11:39:40.009Z,1.85
2022-10-21T11:44:11.538Z,2.40
2022-10-21T11:48:27.882Z,2.00
2022-10-21T11:57:19.230Z,2.00
2022-10-21T12:01:33.842Z,2.05
2022-10-21T12:05:41.612Z,2.53
2022-10-21T12:10:10.785Z,1.80
2022-10-21T12:14:31.647Z,2.15
2022-10-21T12:18:41.345Z,2.13
2022-10-21T12:22:43.569Z,2.40
2022-10-21T12:26:56.218Z,1.90
2022-10-21T12:31:29.307Z,2.20
2022-10-21T12:35:55.232Z,2.05
2022-10-21T12:40:11.947Z,2.40
2022-10-21T12:48:40.057Z,1.63
2022-10-21T12:52:43.394Z,2.22
2022-10-21T12:57:05.774Z,1.90
2022-10-21T13:01:53.675Z,2.22
2022-10-21T13:06:02.705Z,1.75
2022-10-21T13:10:09.650Z,1.92
2022-10-21T13:14:17.031Z,2.08
2022-10-21T13:18:52.247Z,1.60
2022-10-21T13:23:03.281Z,1.90
2022-10-21T13:27:30.179Z,1.58
2022-10-21T13:31:32.031Z,1.88
2022-10-21T13:35:55.875Z,1.98
2022-10-21T13:40:01.215Z,1.90
2022-10-21T13:44:05.523Z,2.03
2022-10-21T13:48:16.919Z,2.03
2022-10-21T13:52:18.839Z,2.10
2022-10-21T13:56:28.263Z,1.92
2022-10-21T14:00:32.026Z,2.28
2022-10-21T14:04:39.351Z,1.80
2022-10-21T14:08:44.194Z,1.83
2022-10-21T14:12:47.768Z,1.83
2022-10-21T14:17:07.903Z,1.95
2022-10-21T14:21:18.233Z,2.05
2022-10-21T14:25:20.018Z,2.00
2022-10-21T14:29:24.583Z,2.25
2022-10-21T14:33:28.420Z,2.00
2022-10-21T14:37:41.939Z,1.85
2022-10-21T14:41:45.919Z,1.77
2022-10-21T14:45:51.173Z,1.83
2022-10-21T14:49:55.809Z,1.52
2022-10-21T14:54:05.226Z,1.70
2022-10-21T14:58:10.545Z,1.90
2022-10-21T15:02:20.679Z,1.73
2022-10-21T15:06:24.379Z,1.48
2022-10-21T15:10:26.553Z,1.77
2022-10-21T15:14:32.087Z,2.10
2022-10-21T15:18:41.153Z,1.92
2022-10-21T15:22:42.771Z,1.85
2022-10-21T15:26:47.078Z,1.42
2022-10-21T15:30:49.090Z,2.22
2022-10-21T15:34:51.642Z,2.00
2022-10-21T15:38:55.212Z,1.90
2022-10-21T15:42:56.875Z,1.65
2022-10-21T15:47:00.693Z,1.70
2022-10-21T15:51:03.269Z,1.75
2022-10-21T15:55:05.278Z,2.00
2022-10-21T15:59:08.895Z,2.03
2022-10-21T16:03:10.526Z,1.33
2022-10-21T16:07:29.270Z,1.45
2022-10-21T16:11:40.874Z,1.92
2022-10-21T16:15:43.201Z,2.13
2022-10-21T16:19:44.795Z,1.77
2022-10-21T16:23:47.040Z,1.63
2022-10-21T16:27:56.161Z,1.80
2022-10-21T16:31:58.358Z,1.65
2022-10-21T16:35:59.998Z,1.50
2022-10-21T16:40:02.288Z,1.90
2022-10-21T16:44:04.017Z,1.75
2022-10-21T16:48:05.702Z,1.70
2022-10-21T16:52:07.312Z,1.98
2022-10-21T16:56:09.554Z,1.77
2022-10-21T17:00:12.670Z,1.70
2022-10-21T17:04:14.508Z,1.45
2022-10-21T17:08:16.456Z,2.05
2022-10-21T17:12:18.048Z,1.88
2022-10-21T17:16:20.327Z,1.60
2022-10-21T17:20:21.957Z,1.70
2022-10-21T17:24:23.656Z,1.95
2022-10-21T17:28:25.318Z,2.10
2022-10-21T17:32:27.043Z,1.60
2022-10-21T17:36:28.723Z,1.85
2022-10-21T17:40:30.427Z,1.80
2022-10-21T17:44:32.658Z,1.80
2022-10-21T17:48:34.352Z,1.40
2022-10-21T17:52:37.310Z,1.80
2022-10-21T17:56:39.286Z,1.95
2022-10-21T18:00:43.747Z,1.95
2022-10-21T18:04:46.421Z,1.60
2022-10-21T18:08:48.301Z,2.00
2022-10-21T18:12:49.896Z,1.80
2022-10-21T18:16:51.563Z,1.90
2022-10-21T18:20:53.158Z,1.52
2022-10-21T18:24:54.791Z,1.75
2022-10-21T18:28:59.833Z,1.70
2022-10-21T18:33:01.704Z,1.80
2022-10-21T18:37:03.360Z,1.90
2022-10-21T18:41:19.486Z,1.90
2022-10-21T18:45:22.590Z,1.58
2022-10-21T18:49:24.252Z,1.75
2022-10-21T18:53:25.899Z,1.70
2022-10-21T18:57:27.481Z,1.40
2022-10-21T19:01:29.130Z,1.63
2022-10-21T19:05:31.246Z,1.70
2022-10-21T19:09:32.865Z,1.70
2022-10-21T19:13:34.567Z,1.80
2022-10-21T19:17:36.349Z,1.75
2022-10-21T19:21:38.429Z,1.90
2022-10-21T19:25:40.095Z,1.60
2022-10-21T19:29:43.306Z,1.90
2022-10-21T19:33:44.967Z,1.50
2022-10-21T19:37:46.567Z,1.35
2022-10-21T19:41:48.491Z,1.50
2022-10-21T19:45:50.407Z,1.73
2022-10-21T19:49:51.974Z,1.65
2022-10-21T19:53:54.679Z,1.60
2022-10-21T19:57:56.320Z,1.60
2022-10-21T20:01:57.924Z,1.45
2022-10-21T20:05:59.528Z,1.60
2022-10-21T20:10:01.167Z,1.63
2022-10-21T20:14:04.147Z,1.70
2022-10-21T20:18:06.170Z,1.70
2022-10-21T20:22:07.754Z,2.08
2022-10-21T20:26:09.954Z,1.27
2022-10-21T20:30:11.695Z,1.50
2022-10-21T20:34:13.751Z,1.63
2022-10-21T20:38:15.367Z,1.80
2022-10-21T20:42:16.967Z,1.63
2022-10-21T20:46:20.443Z,1.67
2022-10-21T20:50:22.069Z,1.40
2022-10-21T20:54:24.888Z,1.48
2022-10-21T20:58:26.609Z,1.40
2022-10-21T21:02:28.193Z,1.45
2022-10-21T21:06:29.814Z,1.45
2022-10-21T21:10:31.613Z,1.52
2022-10-21T21:14:33.400Z,1.40
2022-10-21T21:18:36.543Z,1.60
2022-10-21T21:22:38.958Z,1.73
2022-10-21T21:26:41.307Z,1.58
2022-10-21T21:30:51.350Z,1.70
2022-10-21T21:34:56.089Z,1.50
2022-10-21T21:38:57.867Z,1.70
2022-10-21T21:42:59.453Z,1.35
2022-10-21T21:47:01.108Z,1.83
2022-10-21T21:51:11.412Z,1.17
2022-10-21T21:55:13.012Z,1.38
2022-10-21T21:59:14.758Z,1.45
2022-10-21T22:03:16.337Z,1.60
2022-10-21T22:07:19.215Z,1.50
2022-10-21T22:11:23.327Z,1.50
2022-10-21T22:19:49.554Z,1.58
2022-10-21T22:23:53.416Z,1.55
2022-10-21T22:27:55.031Z,1.50
2022-10-21T22:31:56.608Z,1.50
2022-10-21T22:35:59.122Z,1.30
2022-10-21T22:40:00.776Z,1.40
2022-10-21T22:44:02.408Z,1.92
2022-10-21T22:48:04.282Z,1.23
2022-10-21T22:52:05.894Z,1.33
2022-10-21T22:56:07.675Z,1.58
2022-10-21T23:00:09.756Z,1.48
2022-10-21T23:04:11.359Z,1.40
2022-10-21T23:08:12.944Z,1.50
2022-10-21T23:12:14.615Z,1.55
2022-10-21T23:16:16.199Z,1.13
2022-10-21T23:20:17.846Z,1.60
2022-10-21T23:24:19.590Z,1.60
2022-10-21T23:28:21.216Z,1.45
2022-10-21T23:32:22.811Z,1.77
2022-10-21T23:36:24.446Z,1.45
2022-10-21T23:40:26.715Z,1.40
2022-10-21T23:44:29.322Z,1.50
2022-10-21T23:48:30.977Z,1.48
2022-10-21T23:52:32.623Z,1.27
2022-10-21T23:56:34.605Z,1.85
